Time;durP1;ratioP1;P1;durP2;ratioP2;P2;SDS_P1;SDS_P2;PMS_P1;PMS_P2;Temp;Humidity;BMP_temperature;BMP_pressure;BME280_temperature;BME280_humidity;BME280_pressure;Samples;Min_cycle;Max_cycle;Signal;HPM_P1;HPM_P2
2021/06/30 00:01:27;;;;;;;3.77;2.50;;;21.40;99.90;;;;;;5118335;28;20997;-60
2021/06/30 00:03:59;;;;;;;1.80;1.70;;;21.20;99.90;;;;;;5121337;27;20451;-61
2021/06/30 00:06:31;;;;;;;1.47;1.40;;;21.00;99.90;;;;;;5118834;28;20448;-61
2021/06/30 00:09:04;;;;;;;1.80;1.70;;;20.70;99.90;;;;;;5131257;27;20690;-60
2021/06/30 00:11:36;;;;;;;2.40;2.20;;;20.70;99.90;;;;;;5113140;27;20434;-61
2021/06/30 00:14:09;;;;;;;3.57;1.90;;;20.60;99.90;;;;;;5123608;27;20458;-61
2021/06/30 00:16:42;;;;;;;2.33;2.07;;;20.70;99.90;;;;;;5119123;28;20661;-60
2021/06/30 00:19:14;;;;;;;2.20;2.00;;;20.70;99.90;;;;;;5116630;28;20489;-62
2021/06/30 00:21:46;;;;;;;2.47;2.00;;;20.70;99.90;;;;;;5117929;28;20503;-63
2021/06/30 00:24:18;;;;;;;2.77;2.43;;;20.70;99.90;;;;;;5117875;27;20554;-61
2021/06/30 00:26:50;;;;;;;1.80;1.70;;;20.80;99.90;;;;;;5124070;27;20661;-61
2021/06/30 00:29:22;;;;;;;2.00;1.80;;;20.70;99.90;;;;;;5104609;27;20437;-61
2021/06/30 00:31:54;;;;;;;1.73;1.50;;;20.40;99.90;;;;;;5101002;28;20442;-61
2021/06/30 00:34:26;;;;;;;3.50;1.90;;;20.00;99.90;;;;;;5119033;27;20456;-63
2021/06/30 00:36:58;;;;;;;3.13;2.17;;;19.50;99.90;;;;;;5118268;28;20445;-64
2021/06/30 00:39:30;;;;;;;4.30;2.33;;;19.00;99.90;;;;;;5119199;27;20520;-65
2021/06/30 00:42:02;;;;;;;4.60;4.20;;;18.80;99.90;;;;;;5125698;27;20441;-65
2021/06/30 00:44:34;;;;;;;3.90;2.60;;;18.70;99.90;;;;;;5122939;27;20453;-66
2021/06/30 00:47:06;;;;;;;6.03;5.30;;;18.60;99.90;;;;;;5124662;27;20648;-68
2021/06/30 00:49:38;;;;;;;7.23;2.17;;;18.60;99.90;;;;;;5136053;27;20684;-66
2021/06/30 00:52:10;;;;;;;3.30;3.00;;;18.70;99.90;;;;;;5118669;27;20806;-66
2021/06/30 00:54:43;;;;;;;3.47;3.03;;;18.70;99.90;;;;;;5106565;27;20447;-70
2021/06/30 00:57:12;;;;;;;3.83;3.10;;;18.60;99.90;;;;;;5085604;28;20482;-68
2021/06/30 00:59:45;;;;;;;5.03;3.23;;;18.50;99.90;;;;;;5118336;28;20636;-70
2021/06/30 01:02:17;;;;;;;3.43;3.13;;;18.40;99.90;;;;;;5105357;28;20469;-69
2021/06/30 01:04:49;;;;;;;3.27;2.97;;;18.30;99.90;;;;;;5093119;28;20491;-68
2021/06/30 01:07:21;;;;;;;6.13;3.80;;;18.30;99.90;;;;;;5099892;28;20415;-66
2021/06/30 01:09:53;;;;;;;5.30;3.30;;;18.20;99.90;;;;;;5118579;28;20492;-65
2021/06/30 01:12:25;;;;;;;3.77;3.47;;;18.20;99.90;;;;;;5116447;28;20473;-65
2021/06/30 01:15:02;;;;;;;4.37;3.93;;;18.20;99.90;;;;;;5117712;28;20444;-64
2021/06/30 01:17:34;;;;;;;4.20;3.80;;;18.30;99.90;;;;;;5131050;27;20427;-62
2021/06/30 01:20:07;;;;;;;5.00;3.90;;;18.20;99.90;;;;;;5130255;27;20471;-62
2021/06/30 01:22:44;;;;;;;4.00;3.70;;;18.10;99.90;;;;;;5135725;27;20550;-62
2021/06/30 01:25:11;;;;;;;4.03;3.63;;;18.10;99.90;;;;;;5107033;28;20438;-62
2021/06/30 01:27:43;;;;;;;3.80;3.40;;;18.10;99.90;;;;;;5117017;28;20486;-62
2021/06/30 01:30:15;;;;;;;5.03;3.20;;;18.10;99.90;;;;;;5127807;27;20657;-63
2021/06/30 01:32:47;;;;;;;3.20;2.90;;;18.10;99.90;;;;;;5113520;27;20448;-62
2021/06/30 01:35:23;;;;;;;5.23;4.10;;;17.80;99.90;;;;;;5116899;28;20747;-63
2021/06/30 01:37:55;;;;;;;6.70;3.47;;;18.10;99.90;;;;;;5114225;28;20533;-63
2021/06/30 01:40:28;;;;;;;5.03;3.80;;;18.00;99.90;;;;;;5117282;28;20579;-61
2021/06/30 01:43:01;;;;;;;3.33;3.13;;;18.00;99.90;;;;;;5115066;28;20607;-63
2021/06/30 01:45:34;;;;;;;2.70;2.50;;;18.00;99.90;;;;;;5117164;28;20445;-63
2021/06/30 01:48:06;;;;;;;5.03;2.60;;;17.90;99.90;;;;;;5119646;27;20998;-63
2021/06/30 01:50:33;;;;;;;3.30;2.20;;;17.80;99.90;;;;;;5115261;27;20497;-63
2021/06/30 01:53:05;;;;;;;3.60;2.47;;;17.80;99.90;;;;;;5116116;28;20445;-63
2021/06/30 01:55:37;;;;;;;8.33;1.87;;;17.70;99.90;;;;;;5125099;27;20458;-62
2021/06/30 01:58:09;;;;;;;1.90;1.80;;;17.60;99.90;;;;;;5096862;28;20792;-63
2021/06/30 02:00:41;;;;;;;1.70;1.60;;;17.60;99.90;;;;;;5116780;28;20438;-62
2021/06/30 02:03:13;;;;;;;2.47;1.80;;;17.60;99.90;;;;;;5115506;28;20507;-64
2021/06/30 02:05:45;;;;;;;2.37;2.20;;;17.60;99.90;;;;;;5117025;28;20469;-62
2021/06/30 02:08:17;;;;;;;1.73;1.63;;;17.40;99.90;;;;;;5112182;28;20451;-63
2021/06/30 02:10:49;;;;;;;1.83;1.73;;;17.50;99.90;;;;;;5116981;28;20460;-61
2021/06/30 02:13:21;;;;;;;2.20;1.60;;;17.50;99.90;;;;;;5113930;28;20770;-61
2021/06/30 02:15:53;;;;;;;1.33;1.23;;;17.40;99.90;;;;;;5125640;27;20440;-63
2021/06/30 02:18:25;;;;;;;3.70;1.97;;;17.30;99.90;;;;;;5126112;27;20421;-63
2021/06/30 02:20:57;;;;;;;2.00;1.80;;;17.30;99.90;;;;;;5122365;27;20755;-62
2021/06/30 02:23:29;;;;;;;3.70;1.87;;;17.40;99.90;;;;;;5121835;27;20696;-62
2021/06/30 02:26:01;;;;;;;2.60;2.40;;;17.30;99.90;;;;;;5120535;28;20416;-62
2021/06/30 02:28:33;;;;;;;2.50;1.60;;;16.80;99.90;;;;;;5120178;28;20447;-62
2021/06/30 02:31:05;;;;;;;4.53;2.27;;;17.20;99.90;;;;;;5119791;27;20432;-62
2021/06/30 02:33:37;;;;;;;1.70;1.60;;;17.10;99.90;;;;;;5110121;28;20759;-61
2021/06/30 02:36:09;;;;;;;2.00;1.80;;;17.20;99.90;;;;;;5117334;28;20419;-63
2021/06/30 02:38:42;;;;;;;2.10;2.00;;;17.20;99.90;;;;;;5120227;28;20420;-62
2021/06/30 02:41:14;;;;;;;5.30;2.23;;;17.10;99.90;;;;;;5119409;27;20442;-62
2021/06/30 02:43:46;;;;;;;1.80;1.70;;;17.10;99.90;;;;;;5119195;28;20451;-62
2021/06/30 02:46:18;;;;;;;2.30;2.10;;;17.10;99.90;;;;;;5118484;28;20416;-62
2021/06/30 02:48:50;;;;;;;4.53;3.13;;;17.10;99.90;;;;;;5119804;27;20765;-62
2021/06/30 02:51:22;;;;;;;2.30;1.97;;;17.20;99.90;;;;;;5119201;27;20428;-62
2021/06/30 02:53:54;;;;;;;2.53;2.00;;;17.10;99.90;;;;;;5119227;28;20442;-63
2021/06/30 02:56:26;;;;;;;2.20;2.10;;;17.20;99.90;;;;;;5120309;28;20480;-62
2021/06/30 02:58:58;;;;;;;2.17;2.07;;;17.20;99.90;;;;;;5119040;28;20453;-62
2021/06/30 03:01:30;;;;;;;2.57;2.37;;;17.20;99.90;;;;;;5119899;28;20423;-62
2021/06/30 03:04:02;;;;;;;2.60;2.17;;;17.30;99.90;;;;;;5119513;28;20443;-63
2021/06/30 03:06:34;;;;;;;2.13;1.93;;;17.40;99.90;;;;;;5117553;28;20444;-63
2021/06/30 03:09:06;;;;;;;2.50;2.20;;;17.50;99.90;;;;;;5125258;27;20450;-62
2021/06/30 03:11:39;;;;;;;2.30;2.10;;;17.70;99.90;;;;;;5117304;28;20501;-62
2021/06/30 03:14:10;;;;;;;2.00;1.80;;;17.70;99.90;;;;;;5118053;27;20439;-62
2021/06/30 03:16:43;;;;;;;2.63;2.03;;;17.70;99.90;;;;;;5135648;27;20805;-63
2021/06/30 03:19:16;;;;;;;2.20;1.90;;;17.80;99.90;;;;;;5132693;27;20511;-63
2021/06/30 03:21:48;;;;;;;2.13;1.93;;;17.90;99.90;;;;;;5121180;27;20837;-63
2021/06/30 03:24:20;;;;;;;4.70;2.50;;;17.90;99.90;;;;;;5117777;28;20456;-62
2021/06/30 03:26:52;;;;;;;4.90;2.30;;;17.90;99.90;;;;;;5126646;27;20461;-62
2021/06/30 03:29:24;;;;;;;2.57;2.37;;;17.90;99.90;;;;;;5115656;28;20486;-62
2021/06/30 03:31:55;;;;;;;3.40;2.30;;;17.90;99.90;;;;;;5131174;27;20480;-63
2021/06/30 03:34:27;;;;;;;2.00;1.90;;;18.30;99.90;;;;;;5118341;28;20462;-64
2021/06/30 03:36:59;;;;;;;2.00;1.83;;;18.80;99.90;;;;;;5128546;27;20423;-63
2021/06/30 03:39:31;;;;;;;2.10;1.90;;;19.40;99.90;;;;;;5115927;27;20437;-62
2021/06/30 03:42:04;;;;;;;3.30;1.80;;;19.70;99.90;;;;;;5126257;27;20445;-64
2021/06/30 03:44:36;;;;;;;1.80;1.70;;;19.40;99.90;;;;;;5120274;27;20451;-62
2021/06/30 03:47:08;;;;;;;1.83;1.50;;;19.00;99.90;;;;;;5133995;27;20428;-64
2021/06/30 03:49:39;;;;;;;2.90;1.77;;;18.80;99.90;;;;;;5120605;27;20428;-64
2021/06/30 03:52:11;;;;;;;1.80;1.60;;;18.50;99.90;;;;;;5133388;27;20440;-64
2021/06/30 03:54:43;;;;;;;2.20;1.73;;;18.30;99.90;;;;;;5119395;27;20434;-66
2021/06/30 03:57:15;;;;;;;2.97;1.70;;;18.30;99.90;;;;;;5138499;27;20440;-67
2021/06/30 03:59:47;;;;;;;1.90;1.30;;;18.30;99.90;;;;;;5090700;28;20446;-65
2021/06/30 04:02:19;;;;;;;1.67;1.57;;;18.20;99.90;;;;;;5129244;27;20530;-66
2021/06/30 04:04:51;;;;;;;1.77;1.60;;;18.30;99.90;;;;;;5131251;27;20443;-64
2021/06/30 04:07:23;;;;;;;2.10;1.90;;;18.20;99.90;;;;;;5119834;28;20749;-65
2021/06/30 04:09:55;;;;;;;7.40;3.57;;;18.20;99.90;;;;;;5117307;28;20439;-64
2021/06/30 04:12:27;;;;;;;2.23;2.03;;;18.30;99.90;;;;;;5112899;28;20453;-64
2021/06/30 04:14:59;;;;;;;2.33;1.67;;;18.30;99.90;;;;;;5117840;28;20476;-64
2021/06/30 04:17:31;;;;;;;1.43;1.33;;;18.30;99.90;;;;;;5137603;27;20494;-65
2021/06/30 04:20:06;;;;;;;1.70;1.60;;;18.30;99.90;;;;;;5127458;27;20449;-64
2021/06/30 04:22:38;;;;;;;1.90;1.70;;;18.30;99.90;;;;;;5137318;27;20763;-64
2021/06/30 04:25:11;;;;;;;1.60;1.50;;;18.30;99.90;;;;;;5127206;27;20799;-64
2021/06/30 04:27:42;;;;;;;2.90;2.10;;;18.30;99.90;;;;;;5118918;28;20440;-64
2021/06/30 04:30:15;;;;;;;4.10;1.70;;;18.30;99.90;;;;;;5129345;27;20615;-63
2021/06/30 04:32:47;;;;;;;1.67;1.57;;;18.30;99.90;;;;;;5087961;28;20423;-64
2021/06/30 04:35:18;;;;;;;1.80;1.70;;;18.30;99.90;;;;;;5116754;28;20665;-64
2021/06/30 04:37:50;;;;;;;2.17;1.97;;;18.40;99.90;;;;;;5132331;27;20756;-64
2021/06/30 04:40:22;;;;;;;1.63;1.53;;;18.50;99.90;;;;;;5126653;27;20448;-64
2021/06/30 04:42:49;;;;;;;5.10;1.60;;;18.60;99.90;;;;;;5128051;27;20425;-63
2021/06/30 04:45:22;;;;;;;1.73;1.40;;;18.70;99.90;;;;;;5118621;28;20448;-63
2021/06/30 04:47:54;;;;;;;1.27;1.17;;;18.90;99.90;;;;;;5129107;27;20758;-65
2021/06/30 04:50:26;;;;;;;2.00;1.80;;;18.90;99.90;;;;;;5118294;28;20430;-62
2021/06/30 04:52:58;;;;;;;2.60;2.27;;;19.10;99.90;;;;;;5117636;28;20465;-63
2021/06/30 04:55:30;;;;;;;4.20;2.17;;;19.20;99.90;;;;;;5115900;27;20448;-63
2021/06/30 04:58:05;;;;;;;2.70;2.50;;;19.30;99.90;;;;;;5117127;28;20466;-62
2021/06/30 05:00:37;;;;;;;2.00;1.90;;;19.50;99.90;;;;;;5118434;27;20440;-64
2021/06/30 05:03:09;;;;;;;7.90;3.77;;;19.70;99.90;;;;;;5117077;28;20408;-64
2021/06/30 05:05:41;;;;;;;5.63;3.00;;;19.90;99.90;;;;;;5116952;28;20416;-64
2021/06/30 05:08:13;;;;;;;7.43;4.73;;;19.90;99.90;;;;;;5114755;28;20531;-63
2021/06/30 05:10:45;;;;;;;4.23;2.53;;;19.80;99.90;;;;;;5114577;28;20462;-62
2021/06/30 05:13:17;;;;;;;2.20;2.00;;;19.60;99.90;;;;;;5099083;28;20423;-64
2021/06/30 05:15:49;;;;;;;3.20;2.90;;;19.80;99.90;;;;;;5121781;27;20445;-62
2021/06/30 05:18:21;;;;;;;1.90;1.77;;;20.00;99.90;;;;;;5131447;27;20441;-62
2021/06/30 05:20:53;;;;;;;3.60;1.87;;;20.20;99.90;;;;;;5106447;28;20503;-63
2021/06/30 05:23:25;;;;;;;2.60;2.37;;;20.30;99.90;;;;;;5117661;28;20584;-64
2021/06/30 05:25:57;;;;;;;3.23;2.93;;;20.30;99.90;;;;;;5120175;27;20442;-63
2021/06/30 05:28:29;;;;;;;1.53;1.40;;;20.30;99.90;;;;;;5117170;27;20462;-63
2021/06/30 05:31:01;;;;;;;1.83;1.73;;;20.20;99.90;;;;;;5119566;27;20764;-63
2021/06/30 05:33:33;;;;;;;1.73;1.63;;;20.20;99.90;;;;;;5120495;27;20816;-64
2021/06/30 05:36:05;;;;;;;2.03;1.83;;;20.10;99.90;;;;;;5120242;28;20464;-64
2021/06/30 05:38:37;;;;;;;1.40;1.30;;;20.20;99.90;;;;;;5117465;27;20449;-64
2021/06/30 05:41:11;;;;;;;3.50;1.50;;;20.40;99.90;;;;;;5116911;28;20655;-65
2021/06/30 05:43:42;;;;;;;1.53;1.43;;;20.50;99.90;;;;;;5118001;28;20503;-64
2021/06/30 05:46:17;;;;;;;2.50;1.70;;;20.80;99.90;;;;;;5116728;28;20437;-65
2021/06/30 05:48:49;;;;;;;1.27;1.17;;;21.10;99.90;;;;;;5117694;28;20408;-64
2021/06/30 05:51:20;;;;;;;1.43;1.33;;;21.40;99.90;;;;;;5115930;28;20438;-64
2021/06/30 05:53:52;;;;;;;2.10;1.67;;;21.60;99.90;;;;;;5126750;27;20522;-63
2021/06/30 05:56:24;;;;;;;1.53;1.43;;;21.70;99.90;;;;;;5121354;27;20425;-64
2021/06/30 05:58:56;;;;;;;1.73;1.30;;;21.60;99.90;;;;;;5136672;27;20436;-63
2021/06/30 06:01:28;;;;;;;1.90;1.43;;;21.70;99.90;;;;;;5119344;28;20466;-63
2021/06/30 06:04:00;;;;;;;1.37;1.27;;;22.10;99.90;;;;;;5106072;28;20490;-64
2021/06/30 06:06:32;;;;;;;1.70;1.60;;;22.70;99.90;;;;;;5104599;28;20444;-62
2021/06/30 06:09:04;;;;;;;3.70;1.53;;;23.80;99.90;;;;;;5110012;28;20445;-64
2021/06/30 06:11:37;;;;;;;4.03;1.60;;;24.40;99.90;;;;;;5099490;28;20451;-63
2021/06/30 06:14:09;;;;;;;2.60;1.60;;;24.40;99.90;;;;;;5095862;28;20413;-64
2021/06/30 06:16:41;;;;;;;4.53;1.53;;;24.80;99.90;;;;;;5096914;28;20701;-64
2021/06/30 06:19:13;;;;;;;3.53;2.10;;;25.40;99.90;;;;;;5095225;28;20439;-65
2021/06/30 06:21:45;;;;;;;1.80;1.67;;;25.60;99.90;;;;;;5095507;28;20447;-64
2021/06/30 06:24:18;;;;;;;4.00;1.57;;;26.10;99.90;;;;;;5095077;28;20530;-61
2021/06/30 06:26:51;;;;;;;4.33;1.90;;;27.60;99.90;;;;;;5107967;28;20502;-62
2021/06/30 06:29:24;;;;;;;2.57;2.30;;;28.90;99.90;;;;;;5094242;28;20448;-64
2021/06/30 06:31:56;;;;;;;2.97;2.77;;;29.50;99.90;;;;;;5096698;28;20762;-64
2021/06/30 06:34:28;;;;;;;2.80;2.60;;;29.30;99.90;;;;;;5110689;28;20456;-64
2021/06/30 06:37:01;;;;;;;2.90;2.80;;;28.20;99.90;;;;;;5105497;28;20445;-62
2021/06/30 06:39:33;;;;;;;3.30;3.20;;;27.60;99.90;;;;;;5109154;28;20464;-63
2021/06/30 06:42:07;;;;;;;4.97;3.37;;;27.30;99.90;;;;;;5115810;28;20617;-61
2021/06/30 06:44:41;;;;;;;5.30;3.90;;;27.50;99.90;;;;;;5097529;28;20539;-61
2021/06/30 06:47:13;;;;;;;4.40;4.10;;;27.90;99.90;;;;;;5109519;28;20441;-62
2021/06/30 06:49:45;;;;;;;4.63;4.43;;;27.90;99.90;;;;;;5099231;28;20485;-64
2021/06/30 06:52:17;;;;;;;4.03;3.83;;;27.60;99.90;;;;;;5116014;28;20446;-63
2021/06/30 06:54:49;;;;;;;6.47;5.30;;;28.40;99.90;;;;;;5101642;28;20815;-63
2021/06/30 06:57:21;;;;;;;4.90;4.67;;;29.30;99.90;;;;;;5092282;28;20510;-64
2021/06/30 06:59:48;;;;;;;5.30;5.00;;;30.40;99.10;;;;;;5098122;28;20480;-62
2021/06/30 07:02:19;;;;;;;5.77;5.23;;;31.40;96.10;;;;;;5097479;28;20682;-63
2021/06/30 07:04:48;;;;;;;6.60;6.30;;;32.10;94.30;;;;;;5081451;28;20547;-62
2021/06/30 07:07:20;;;;;;;6.97;6.57;;;32.20;93.70;;;;;;5082240;28;20493;-64
2021/06/30 07:09:47;;;;;;;6.83;6.43;;;32.60;91.90;;;;;;5110894;28;20474;-63
2021/06/30 07:12:20;;;;;;;6.13;5.73;;;31.90;92.60;;;;;;5070740;28;20439;-63
2021/06/30 07:14:52;;;;;;;6.67;6.10;;;30.50;94.90;;;;;;5099302;28;20446;-63
2021/06/30 07:17:24;;;;;;;6.30;6.00;;;29.70;96.50;;;;;;5105231;28;20482;-63
2021/06/30 07:19:56;;;;;;;5.23;5.00;;;29.60;96.10;;;;;;5083585;28;20497;-62
2021/06/30 07:22:28;;;;;;;5.47;5.27;;;30.90;96.00;;;;;;5098702;28;20443;-63
2021/06/30 07:25:01;;;;;;;6.40;6.20;;;32.90;90.80;;;;;;5099181;28;20800;-63
2021/06/30 07:27:32;;;;;;;7.17;6.87;;;33.50;88.80;;;;;;5108093;28;20442;-63
2021/06/30 07:30:05;;;;;;;6.37;6.07;;;34.60;83.90;;;;;;5099428;28;20448;-66
2021/06/30 07:32:37;;;;;;;7.33;7.00;;;35.60;80.00;;;;;;5082414;28;20446;-66
2021/06/30 07:35:09;;;;;;;7.07;6.77;;;36.20;75.80;;;;;;5098688;28;20492;-63
2021/06/30 07:37:41;;;;;;;8.40;8.00;;;37.60;73.70;;;;;;5099145;28;20443;-63
2021/06/30 07:40:14;;;;;;;8.33;8.03;;;37.70;69.20;;;;;;5099037;28;20434;-65
2021/06/30 07:42:45;;;;;;;8.20;7.63;;;36.50;68.80;;;;;;5086016;28;20512;-64
2021/06/30 07:45:18;;;;;;;7.20;6.90;;;36.50;68.50;;;;;;5098581;28;20635;-66
2021/06/30 07:47:45;;;;;;;7.27;6.80;;;36.00;67.80;;;;;;5080473;28;20675;-68
2021/06/30 07:50:12;;;;;;;7.83;7.53;;;35.70;68.90;;;;;;5094432;28;20493;-66
2021/06/30 07:52:39;;;;;;;7.00;6.80;;;35.30;72.10;;;;;;5087328;28;20463;-67
2021/06/30 07:55:07;;;;;;;8.60;8.10;;;35.30;71.50;;;;;;5098517;28;20443;-65
2021/06/30 07:57:34;;;;;;;7.60;7.30;;;36.00;67.50;;;;;;5099885;28;20439;-67
2021/06/30 08:00:01;;;;;;;8.00;7.60;;;37.00;66.80;;;;;;5098050;28;20463;-67
2021/06/30 08:02:28;;;;;;;7.10;6.80;;;36.10;65.30;;;;;;5100424;28;20629;-66
2021/06/30 08:04:56;;;;;;;8.00;7.60;;;33.80;73.30;;;;;;5082558;28;20799;-67
2021/06/30 08:07:23;;;;;;;7.10;6.80;;;32.20;75.90;;;;;;5080422;28;20454;-66
2021/06/30 08:09:53;;;;;;;7.30;7.00;;;31.20;79.80;;;;;;5096531;28;20463;-67
2021/06/30 08:12:20;;;;;;;6.67;6.47;;;30.30;82.60;;;;;;5099980;28;20448;-67
2021/06/30 08:14:48;;;;;;;6.50;6.30;;;29.70;86.60;;;;;;5096969;28;20447;-66
2021/06/30 08:17:15;;;;;;;7.63;7.33;;;31.00;81.70;;;;;;5104974;28;20769;-67
2021/06/30 08:19:42;;;;;;;8.20;7.83;;;32.60;79.40;;;;;;5106518;28;20768;-69
2021/06/30 08:22:10;;;;;;;7.80;7.50;;;34.70;71.60;;;;;;5097233;28;20509;-66
2021/06/30 08:24:43;;;;;;;7.50;7.17;;;34.40;72.30;;;;;;5105921;28;21027;-66
2021/06/30 08:27:12;;;;;;;7.40;7.10;;;33.70;71.70;;;;;;5108999;28;20499;-69
2021/06/30 08:29:42;;;;;;;7.93;7.63;;;34.30;71.90;;;;;;5103656;28;20667;-66
2021/06/30 08:32:09;;;;;;;7.80;7.50;;;34.70;69.80;;;;;;5094472;28;20441;-66
2021/06/30 08:34:36;;;;;;;7.53;7.23;;;35.70;71.00;;;;;;5087094;28;20777;-65
2021/06/30 08:37:07;;;;;;;8.87;8.27;;;37.20;65.30;;;;;;5113725;28;20446;-68
2021/06/30 08:39:35;;;;;;;8.30;8.00;;;38.30;60.70;;;;;;5106352;28;20544;-65
2021/06/30 08:42:02;;;;;;;9.43;8.83;;;38.00;60.90;;;;;;5097296;28;20769;-66
2021/06/30 08:44:35;;;;;;;8.10;7.70;;;36.60;63.50;;;;;;5078748;28;20493;-66
2021/06/30 08:47:03;;;;;;;7.30;7.00;;;34.80;65.10;;;;;;5084986;28;20447;-65
2021/06/30 08:49:32;;;;;;;6.40;6.20;;;32.70;70.60;;;;;;5094993;28;20447;-64
2021/06/30 08:52:00;;;;;;;7.50;7.00;;;31.20;75.20;;;;;;5097440;28;20435;-65
2021/06/30 08:54:27;;;;;;;7.47;7.10;;;32.60;72.80;;;;;;5106118;28;20583;-65
2021/06/30 08:56:55;;;;;;;8.00;7.60;;;32.40;73.10;;;;;;5101876;28;20442;-64
2021/06/30 08:59:23;;;;;;;7.00;6.70;;;33.20;74.20;;;;;;5090604;28;20465;-65
2021/06/30 09:01:50;;;;;;;7.03;6.73;;;32.70;73.00;;;;;;5098413;28;20443;-66
2021/06/30 09:04:17;;;;;;;7.83;7.43;;;32.00;75.50;;;;;;5095489;28;20836;-65
2021/06/30 09:06:44;;;;;;;8.03;7.63;;;32.10;76.80;;;;;;5100138;28;20448;-65
2021/06/30 09:09:14;;;;;;;7.07;6.77;;;31.40;75.90;;;;;;5096195;28;20482;-66
2021/06/30 09:11:43;;;;;;;7.20;6.80;;;30.70;77.70;;;;;;5097289;28;20455;-63
2021/06/30 09:14:25;;;;;;;7.40;7.10;;;30.90;78.20;;;;;;5095761;28;20629;-65
2021/06/30 09:17:10;;;;;;;7.10;6.80;;;32.00;77.40;;;;;;5105615;28;20433;-64
2021/06/30 09:19:49;;;;;;;7.10;6.70;;;34.60;69.20;;;;;;5096333;28;20762;-63
2021/06/30 09:22:18;;;;;;;8.23;7.83;;;35.30;66.20;;;;;;5083592;28;20770;-64
2021/06/30 09:24:47;;;;;;;7.77;7.27;;;34.00;66.30;;;;;;5096342;28;20489;-63
2021/06/30 09:27:16;;;;;;;8.10;7.70;;;32.30;73.30;;;;;;5098666;28;21099;-64
2021/06/30 09:29:44;;;;;;;8.53;8.13;;;32.50;71.20;;;;;;5095450;28;20902;-63
2021/06/30 09:32:14;;;;;;;7.63;7.33;;;33.90;70.30;;;;;;5097084;28;20448;-63
2021/06/30 09:34:41;;;;;;;8.07;7.57;;;35.10;65.70;;;;;;5096977;28;20496;-62
2021/06/30 09:37:10;;;;;;;7.97;7.67;;;35.30;64.30;;;;;;5106699;28;20815;-63
2021/06/30 09:39:51;;;;;;;8.80;8.40;;;34.10;66.50;;;;;;5103191;28;20528;-65
2021/06/30 09:42:18;;;;;;;8.17;7.87;;;32.70;70.60;;;;;;5101168;28;20442;-65
2021/06/30 09:44:47;;;;;;;8.53;8.13;;;31.50;73.60;;;;;;5100855;28;20529;-62
2021/06/30 09:47:14;;;;;;;8.83;8.20;;;30.20;78.30;;;;;;5108710;28;20624;-62
2021/06/30 09:49:41;;;;;;;7.67;7.37;;;29.80;79.50;;;;;;5096065;28;20430;-63
2021/06/30 09:52:18;;;;;;;7.90;7.50;;;29.70;82.10;;;;;;5105962;28;20446;-62
2021/06/30 09:55:22;;;;;;;7.87;7.57;;;29.90;81.90;;;;;;5091478;28;20450;-63
2021/06/30 09:57:56;;;;;;;8.20;7.80;;;30.40;78.60;;;;;;5095006;28;20480;-63
2021/06/30 10:00:26;;;;;;;7.30;7.00;;;30.10;80.60;;;;;;5091794;28;20823;-64
2021/06/30 10:02:54;;;;;;;7.00;6.70;;;30.10;81.30;;;;;;5082383;28;20451;-62
2021/06/30 10:05:32;;;;;;;7.20;6.90;;;30.00;81.60;;;;;;5095476;28;20486;-62
2021/06/30 10:08:13;;;;;;;8.03;7.53;;;30.20;80.30;;;;;;5107516;28;20468;-63
2021/06/30 10:10:42;;;;;;;8.87;8.47;;;30.00;82.10;;;;;;5105926;28;20440;-62
2021/06/30 10:13:09;;;;;;;7.57;7.17;;;29.70;82.30;;;;;;5095956;28;20445;-62
2021/06/30 10:15:40;;;;;;;7.60;7.30;;;29.60;82.70;;;;;;5098773;28;20511;-62
2021/06/30 10:18:07;;;;;;;7.93;7.50;;;29.50;82.60;;;;;;5104330;28;20435;-62
2021/06/30 10:20:42;;;;;;;7.23;6.80;;;29.50;82.30;;;;;;5080731;28;20441;-61
2021/06/30 10:23:09;;;;;;;7.60;7.20;;;29.50;82.70;;;;;;5113944;28;20528;-62
2021/06/30 10:25:37;;;;;;;8.27;7.47;;;29.70;83.60;;;;;;5107165;28;20536;-63
2021/06/30 10:28:05;;;;;;;7.20;6.80;;;30.10;80.90;;;;;;5107350;28;20445;-63
2021/06/30 10:30:34;;;;;;;7.20;6.90;;;30.20;80.20;;;;;;5100858;28;20787;-62
2021/06/30 10:33:02;;;;;;;7.50;7.20;;;29.80;78.00;;;;;;5096289;28;20549;-63
2021/06/30 10:35:42;;;;;;;7.47;7.17;;;29.60;80.10;;;;;;5104305;28;20446;-61
2021/06/30 10:38:10;;;;;;;7.07;6.77;;;29.80;80.10;;;;;;5118370;28;20434;-62
2021/06/30 10:40:37;;;;;;;6.70;6.30;;;29.70;78.80;;;;;;5096159;28;20449;-62
2021/06/30 10:43:10;;;;;;;6.53;6.30;;;29.60;80.70;;;;;;5098862;28;20438;-62
2021/06/30 10:45:38;;;;;;;6.40;6.00;;;29.60;80.60;;;;;;5112731;28;20481;-62
2021/06/30 10:48:07;;;;;;;6.93;6.63;;;29.30;80.70;;;;;;5110806;28;20446;-63
2021/06/30 10:50:37;;;;;;;7.10;6.80;;;28.80;82.90;;;;;;5102183;28;20438;-63
2021/06/30 10:53:04;;;;;;;7.23;6.73;;;28.40;83.10;;;;;;5091983;28;20482;-62
2021/06/30 10:58:14;;;;;;;7.23;6.93;;;27.80;87.40;;;;;;5099894;28;20542;-63
2021/06/30 11:01:02;;;;;;;6.90;6.60;;;27.30;89.50;;;;;;5098626;28;20461;-63
2021/06/30 11:03:30;;;;;;;6.77;6.47;;;27.00;90.80;;;;;;5111401;28;20527;-64
2021/06/30 11:06:06;;;;;;;7.60;7.20;;;27.00;90.00;;;;;;5116677;28;20475;-62
2021/06/30 11:08:44;;;;;;;7.37;6.97;;;27.30;90.40;;;;;;5098012;28;20883;-62
2021/06/30 11:11:35;;;;;;;7.50;6.97;;;28.10;88.70;;;;;;5107322;28;20435;-62
2021/06/30 11:14:09;;;;;;;6.90;6.60;;;28.30;86.40;;;;;;5098137;28;20443;-62
2021/06/30 11:16:37;;;;;;;7.60;7.20;;;28.10;88.80;;;;;;5110721;28;20778;-61
2021/06/30 11:21:52;;;;;;;7.40;7.00;;;27.10;90.30;;;;;;5116264;28;20438;-62
2021/06/30 11:24:39;;;;;;;7.57;7.17;;;26.70;91.10;;;;;;5102817;28;20734;-61
2021/06/30 11:27:06;;;;;;;7.17;6.63;;;26.30;92.40;;;;;;5104936;28;20437;-63
2021/06/30 11:29:51;;;;;;;6.47;6.13;;;26.30;92.20;;;;;;5100818;28;20744;-61
2021/06/30 11:32:37;;;;;;;6.80;6.50;;;25.90;92.40;;;;;;5097957;28;20427;-61
2021/06/30 11:35:25;;;;;;;7.67;7.17;;;25.50;94.00;;;;;;5093796;28;20436;-61
2021/06/30 11:37:58;;;;;;;6.87;6.47;;;25.50;93.50;;;;;;5086794;28;20757;-62
2021/06/30 11:40:49;;;;;;;7.33;6.57;;;25.60;93.40;;;;;;5097914;28;20439;-60
2021/06/30 11:43:23;;;;;;;7.50;7.10;;;25.50;93.80;;;;;;5088031;28;20481;-62
2021/06/30 11:45:56;;;;;;;6.77;6.27;;;25.70;93.40;;;;;;5096865;28;20535;-62
2021/06/30 11:48:23;;;;;;;6.80;6.37;;;25.90;93.40;;;;;;5086841;28;20461;-62
2021/06/30 11:51:05;;;;;;;5.80;5.50;;;26.10;93.00;;;;;;5097790;28;20447;-62
2021/06/30 11:53:36;;;;;;;6.97;6.47;;;26.50;92.80;;;;;;5112313;28;20442;-62
2021/06/30 11:56:04;;;;;;;7.63;7.03;;;26.80;92.30;;;;;;5076715;28;20457;-62
2021/06/30 11:58:47;;;;;;;6.63;6.33;;;27.10;91.80;;;;;;5095375;28;20447;-62
2021/06/30 12:01:19;;;;;;;7.30;6.90;;;27.10;91.90;;;;;;5103127;28;20446;-62
2021/06/30 12:03:46;;;;;;;5.87;5.67;;;27.10;91.80;;;;;;5101905;28;20480;-63
2021/06/30 12:06:27;;;;;;;6.70;6.40;;;26.80;91.90;;;;;;5067949;28;20483;-63
2021/06/30 12:09:20;;;;;;;7.03;6.63;;;26.50;92.40;;;;;;5107570;28;20474;-62
2021/06/30 12:12:02;;;;;;;7.17;6.67;;;26.70;92.70;;;;;;5101678;28;20432;-62
2021/06/30 12:14:39;;;;;;;7.53;6.80;;;27.00;92.30;;;;;;5110218;28;20435;-63
2021/06/30 12:17:08;;;;;;;7.33;6.93;;;27.10;91.90;;;;;;5092541;28;20446;-63
2021/06/30 12:19:50;;;;;;;7.97;7.27;;;27.00;92.00;;;;;;5113957;28;20794;-63
2021/06/30 12:22:20;;;;;;;6.70;6.30;;;26.90;92.20;;;;;;5109012;28;20448;-62
2021/06/30 12:25:01;;;;;;;7.90;7.30;;;26.90;91.80;;;;;;5086290;28;20625;-62
2021/06/30 12:27:45;;;;;;;7.07;6.77;;;26.90;92.00;;;;;;5096977;28;20730;-61
2021/06/30 12:30:24;;;;;;;8.20;7.70;;;26.90;91.40;;;;;;5094693;28;20431;-61
2021/06/30 12:32:54;;;;;;;8.17;7.03;;;27.10;92.00;;;;;;5096079;28;20436;-61
2021/06/30 12:35:33;;;;;;;7.33;6.77;;;27.20;92.00;;;;;;5096727;28;20481;-62
2021/06/30 12:38:04;;;;;;;7.73;7.33;;;27.20;92.10;;;;;;5097295;28;20611;-62
2021/06/30 12:40:45;;;;;;;7.33;6.93;;;27.20;92.10;;;;;;5097747;28;20490;-61
2021/06/30 12:43:21;;;;;;;7.50;7.10;;;27.60;91.90;;;;;;5096602;28;20442;-61
2021/06/30 12:45:53;;;;;;;7.80;7.30;;;27.90;91.00;;;;;;5098931;28;20485;-61
2021/06/30 12:48:29;;;;;;;7.30;6.80;;;28.30;89.90;;;;;;5097518;28;20647;-61
2021/06/30 12:51:08;;;;;;;7.70;7.20;;;28.40;90.50;;;;;;5096472;28;20472;-62
2021/06/30 12:53:40;;;;;;;8.13;7.63;;;28.30;90.00;;;;;;5095271;28;20568;-62
2021/06/30 12:56:19;;;;;;;9.03;8.50;;;28.10;90.60;;;;;;5096708;28;20494;-61
2021/06/30 12:58:48;;;;;;;8.47;7.87;;;28.00;90.30;;;;;;5095299;28;20766;-63
2021/06/30 13:01:28;;;;;;;7.70;7.30;;;28.00;90.70;;;;;;5096612;28;20465;-62
2021/06/30 13:03:57;;;;;;;7.77;7.23;;;27.50;91.10;;;;;;5093742;28;20435;-63
2021/06/30 13:06:45;;;;;;;8.57;7.97;;;27.00;92.20;;;;;;5092876;28;20490;-62
2021/06/30 13:09:14;;;;;;;7.80;7.37;;;26.70;92.00;;;;;;5087739;28;20504;-62
2021/06/30 13:11:53;;;;;;;8.50;8.00;;;26.40;92.50;;;;;;5094524;28;20764;-61
2021/06/30 13:14:40;;;;;;;6.40;6.10;;;26.20;93.00;;;;;;5088498;28;20750;-61
2021/06/30 13:17:15;;;;;;;7.53;6.93;;;26.30;92.90;;;;;;5105461;28;20512;-63
2021/06/30 13:19:45;;;;;;;7.00;6.60;;;26.40;93.10;;;;;;5085045;28;20450;-62